Terminal Aerodrome Forecast
Issued by NWS Wakefield, VA

Home | Current Version | Previous Version | Text Only | Print | Product List | Glossary On
Versions: 1 2 3 4 5 6 7 8 9 10 11 12 13 14 15
000
FTUS41 KAKQ 181728
TAFECG
TAF
KECG 181728Z 1818/1918 05009KT P6SM VCSH BKN035 BKN250
     FM182100 07008KT P6SM SCT050 SCT250
     FM190100 05004KT P6SM SCT250
     FM191300 06012KT P6SM BKN100
     FM191500 08012G20KT P6SM SCT020 BKN100=

USA.gov is the U.S. government's official web portal to all federal, state and local government web resources and services.